createdAt,value
2018-11-25T00:00:25.121Z,86.52
2018-11-25T00:02:52.820Z,85.76
2018-11-25T00:05:20.470Z,86.92
2018-11-25T00:07:48.180Z,86.50
2018-11-25T00:10:16.752Z,86.59
2018-11-25T00:12:44.519Z,85.66
2018-11-25T00:15:12.948Z,86.58
2018-11-25T00:17:42.345Z,86.02
2018-11-25T00:20:11.259Z,86.99
2018-11-25T00:22:38.934Z,86.26
2018-11-25T00:25:08.890Z,86.45
2018-11-25T00:27:39.319Z,87.34
2018-11-25T00:30:12.719Z,86.67
2018-11-25T00:32:40.767Z,87.83
2018-11-25T00:35:10.535Z,87.33
2018-11-25T00:37:38.239Z,86.94
2018-11-25T00:40:07.960Z,86.96
2018-11-25T00:42:35.574Z,87.93
2018-11-25T00:45:05.052Z,87.37
2018-11-25T00:47:33.288Z,87.37
2018-11-25T00:50:01.507Z,87.88
2018-11-25T00:52:34.238Z,87.09
2018-11-25T00:55:03.379Z,87.12
2018-11-25T00:57:32.642Z,87.16
2018-11-25T01:00:01.699Z,86.90
2018-11-25T01:02:30.452Z,87.64
2018-11-25T01:04:58.734Z,87.08
2018-11-25T01:07:27.904Z,86.96
2018-11-25T01:09:56.208Z,87.39
2018-11-25T01:12:24.932Z,87.20
2018-11-25T01:14:52.660Z,87.75
2018-11-25T01:17:20.234Z,87.18
2018-11-25T01:19:47.934Z,87.14
2018-11-25T01:22:15.515Z,87.49
2018-11-25T01:24:44.306Z,87.28
2018-11-25T01:27:12.003Z,87.57
2018-11-25T01:29:40.229Z,87.40
2018-11-25T01:32:07.923Z,86.86
2018-11-25T01:34:36.568Z,87.35
2018-11-25T01:37:07.817Z,87.46
2018-11-25T01:39:36.173Z,86.58
2018-11-25T01:42:05.105Z,87.25
2018-11-25T01:44:34.176Z,87.03
2018-11-25T01:47:02.346Z,86.15
2018-11-25T01:49:30.009Z,87.05
2018-11-25T01:51:57.623Z,86.63
2018-11-25T01:54:25.272Z,87.43
2018-11-25T01:56:53.592Z,86.83
2018-11-25T01:59:21.183Z,88.05
2018-11-25T02:01:48.741Z,87.70
2018-11-25T02:04:16.383Z,88.05
2018-11-25T02:06:44.009Z,88.39
2018-11-25T02:09:11.651Z,88.35
2018-11-25T02:11:39.215Z,88.55
2018-11-25T02:14:08.086Z,89.52
2018-11-25T02:16:35.775Z,89.97
2018-11-25T02:19:04.102Z,89.86
2018-11-25T02:21:32.664Z,90.00
2018-11-25T02:24:02.419Z,89.36
2018-11-25T02:26:31.725Z,89.98
2018-11-25T02:29:01.897Z,90.39
2018-11-25T02:31:33.771Z,90.43
2018-11-25T02:34:03.296Z,90.73
2018-11-25T02:36:30.945Z,89.76
2018-11-25T02:38:58.566Z,90.31
2018-11-25T02:41:26.242Z,90.54
2018-11-25T02:43:53.891Z,90.43
2018-11-25T02:46:21.475Z,90.73
2018-11-25T02:48:49.693Z,89.72
2018-11-25T02:51:17.378Z,90.71
2018-11-25T02:53:45.513Z,90.55
2018-11-25T02:56:13.705Z,90.96
2018-11-25T02:58:41.533Z,90.73
2018-11-25T03:01:09.885Z,90.79
2018-11-25T03:03:37.498Z,91.07
2018-11-25T03:06:06.260Z,90.51
2018-11-25T03:08:33.958Z,90.86
2018-11-25T03:11:01.628Z,89.97
2018-11-25T03:13:29.306Z,90.66
2018-11-25T03:15:57.952Z,89.76
2018-11-25T03:18:25.537Z,90.42
2018-11-25T03:20:53.220Z,89.48
2018-11-25T03:23:21.579Z,89.74
2018-11-25T03:25:49.981Z,90.05
2018-11-25T03:28:17.570Z,89.63
2018-11-25T03:30:45.204Z,89.70
2018-11-25T03:33:13.796Z,89.80
2018-11-25T03:35:41.500Z,89.52
2018-11-25T03:38:09.727Z,88.68
2018-11-25T03:40:37.813Z,88.79
2018-11-25T03:43:06.302Z,89.23
2018-11-25T03:45:33.950Z,89.31
2018-11-25T03:48:01.591Z,88.34
2018-11-25T03:50:29.869Z,88.86
2018-11-25T03:52:57.487Z,88.71
2018-11-25T03:55:25.051Z,88.06
2018-11-25T03:57:52.754Z,88.67
2018-11-25T04:00:21.455Z,88.84
2018-11-25T04:02:50.815Z,88.59
2018-11-25T04:05:17.784Z,88.37
2018-11-25T04:07:44.723Z,87.73
2018-11-25T04:10:12.740Z,87.84
2018-11-25T04:12:39.665Z,88.63
2018-11-25T04:15:08.735Z,88.32
2018-11-25T04:17:35.661Z,88.69
2018-11-25T04:20:02.615Z,88.67
2018-11-25T04:22:29.529Z,87.76
2018-11-25T04:24:56.461Z,87.62
2018-11-25T04:27:23.423Z,87.65
2018-11-25T04:29:50.365Z,87.64
2018-11-25T04:32:17.279Z,88.14
2018-11-25T04:34:44.186Z,88.16
2018-11-25T04:37:11.109Z,88.64
2018-11-25T04:39:38.029Z,88.59
2018-11-25T04:42:05.050Z,87.96
2018-11-25T04:44:31.958Z,88.84
2018-11-25T04:46:58.865Z,87.86
2018-11-25T04:49:25.761Z,88.56
2018-11-25T04:51:52.686Z,89.20
2018-11-25T04:54:19.724Z,88.78
2018-11-25T04:56:46.631Z,89.61
2018-11-25T04:59:13.529Z,90.45
2018-11-25T05:01:40.448Z,90.76
2018-11-25T05:04:07.365Z,90.20
2018-11-25T05:06:34.281Z,90.79
2018-11-25T05:09:01.205Z,90.69
2018-11-25T05:11:28.139Z,90.19
2018-11-25T05:13:55.029Z,90.64
2018-11-25T05:16:21.949Z,91.16
2018-11-25T05:18:48.854Z,90.71
2018-11-25T05:21:15.792Z,90.84
2018-11-25T05:23:42.693Z,91.02
2018-11-25T05:26:09.612Z,91.63
2018-11-25T05:28:36.543Z,91.61
2018-11-25T05:31:03.521Z,91.47
2018-11-25T05:33:30.470Z,91.80
2018-11-25T05:35:57.389Z,92.25
2018-11-25T05:38:24.308Z,92.46
2018-11-25T05:40:51.222Z,92.09
2018-11-25T05:43:18.141Z,92.65
2018-11-25T05:45:45.038Z,92.13
2018-11-25T05:48:11.963Z,92.69
2018-11-25T05:50:38.899Z,92.09
2018-11-25T05:53:05.812Z,92.25
2018-11-25T05:55:32.729Z,92.28
2018-11-25T05:57:59.649Z,91.66
2018-11-25T06:00:31.282Z,92.50
2018-11-25T06:02:58.220Z,91.67
2018-11-25T06:05:25.128Z,92.23
2018-11-25T06:07:52.066Z,92.43
2018-11-25T06:10:18.967Z,92.16
2018-11-25T06:12:52.664Z,92.77
2018-11-25T06:15:19.591Z,91.57
2018-11-25T06:17:46.538Z,93.00
2018-11-25T06:20:16.182Z,92.98
2018-11-25T06:22:43.254Z,92.88
2018-11-25T06:25:11.454Z,92.29
2018-11-25T06:27:38.616Z,93.06
2018-11-25T06:30:08.682Z,92.57
2018-11-25T06:32:35.608Z,92.04
2018-11-25T06:35:02.531Z,92.07
2018-11-25T06:37:29.445Z,92.45
2018-11-25T06:39:56.358Z,92.72
2018-11-25T06:42:23.269Z,92.10
2018-11-25T06:44:50.178Z,92.88
2018-11-25T06:47:17.105Z,92.72
2018-11-25T06:49:44.020Z,91.81
2018-11-25T06:52:10.947Z,92.76
2018-11-25T06:54:37.860Z,92.56
2018-11-25T06:57:04.808Z,91.59
2018-11-25T06:59:32.568Z,91.64
2018-11-25T07:01:59.446Z,92.18
2018-11-25T07:04:26.364Z,92.39
2018-11-25T07:06:53.277Z,92.01
2018-11-25T07:09:20.185Z,92.64
2018-11-25T07:11:47.094Z,91.60
2018-11-25T07:14:14.009Z,92.62
2018-11-25T07:16:40.913Z,92.13
2018-11-25T07:19:07.853Z,92.15
2018-11-25T07:21:34.768Z,92.42
2018-11-25T07:24:01.692Z,91.74
2018-11-25T07:26:28.633Z,91.50
2018-11-25T07:28:55.552Z,92.33
2018-11-25T07:31:22.455Z,91.51
2018-11-25T07:33:49.365Z,91.75
2018-11-25T07:36:16.266Z,92.34
2018-11-25T07:38:43.173Z,91.55
2018-11-25T07:41:10.081Z,92.67
2018-11-25T07:43:36.997Z,91.89
2018-11-25T07:46:04.221Z,92.40
2018-11-25T07:48:31.133Z,91.79
2018-11-25T07:50:58.030Z,92.82
2018-11-25T07:53:24.967Z,92.60
2018-11-25T07:55:51.869Z,93.41
2018-11-25T07:58:18.801Z,93.71
2018-11-25T08:00:45.703Z,93.15
2018-11-25T08:03:12.623Z,93.81
2018-11-25T08:05:39.529Z,93.25
2018-11-25T08:08:06.470Z,93.97
2018-11-25T08:10:33.386Z,94.05
2018-11-25T08:13:00.310Z,93.49
2018-11-25T08:15:27.246Z,93.92
2018-11-25T08:17:54.153Z,94.48
2018-11-25T08:20:21.578Z,94.19
2018-11-25T08:22:48.671Z,94.31
2018-11-25T08:25:17.365Z,94.71
2018-11-25T08:27:44.293Z,95.36
2018-11-25T08:30:15.366Z,94.40
2018-11-25T08:32:42.289Z,95.31
2018-11-25T08:35:09.753Z,95.15
2018-11-25T08:37:36.793Z,95.31
2018-11-25T08:40:07.034Z,95.26
2018-11-25T08:42:33.953Z,94.69
2018-11-25T08:45:00.866Z,95.59
2018-11-25T08:47:27.781Z,95.70
2018-11-25T08:49:54.703Z,95.19
2018-11-25T08:52:21.611Z,95.45
2018-11-25T08:54:48.518Z,95.15
2018-11-25T08:57:15.433Z,95.91
2018-11-25T08:59:42.381Z,95.61
2018-11-25T09:02:09.449Z,95.86
2018-11-25T09:04:36.582Z,95.08
2018-11-25T09:07:03.569Z,95.15
2018-11-25T09:09:30.813Z,95.50
2018-11-25T09:11:57.761Z,95.43
2018-11-25T09:14:24.742Z,94.73
2018-11-25T09:16:51.662Z,95.29
2018-11-25T09:19:18.581Z,95.85
2018-11-25T09:21:45.477Z,95.63
2018-11-25T09:24:12.432Z,95.37
2018-11-25T09:26:39.435Z,95.58
2018-11-25T09:29:06.504Z,94.70
2018-11-25T09:31:33.430Z,95.33
2018-11-25T09:34:00.334Z,94.67
2018-11-25T09:36:27.490Z,95.04
2018-11-25T09:38:54.386Z,95.33
2018-11-25T09:41:22.258Z,94.58
2018-11-25T09:43:50.640Z,94.78
2018-11-25T09:46:17.561Z,94.62
2018-11-25T09:48:44.689Z,94.88
2018-11-25T09:51:11.890Z,94.83
2018-11-25T09:53:38.802Z,94.31
2018-11-25T09:56:06.157Z,94.72
2018-11-25T09:58:33.045Z,94.80
2018-11-25T10:00:59.966Z,94.88
2018-11-25T10:03:27.079Z,94.22
2018-11-25T10:05:53.998Z,94.88
2018-11-25T10:08:20.921Z,94.27
2018-11-25T10:10:52.641Z,94.07
2018-11-25T10:13:14.966Z,94.24
2018-11-25T10:15:41.881Z,94.74
2018-11-25T10:18:08.793Z,95.11
2018-11-25T10:20:35.719Z,94.08
2018-11-25T10:23:02.679Z,94.61
2018-11-25T10:25:29.640Z,95.34
2018-11-25T10:27:56.596Z,94.00
2018-11-25T10:30:25.557Z,94.10
2018-11-25T10:32:54.555Z,93.79
2018-11-25T10:35:21.472Z,93.78
2018-11-25T10:37:48.381Z,92.88
2018-11-25T10:40:16.433Z,92.76
2018-11-25T10:42:43.455Z,90.72
2018-11-25T10:45:11.501Z,92.07
2018-11-25T10:47:38.573Z,91.09
2018-11-25T10:50:07.811Z,91.43
2018-11-25T10:52:34.713Z,91.49
2018-11-25T10:55:01.706Z,92.23
2018-11-25T10:57:28.649Z,91.34
2018-11-25T10:59:55.562Z,92.20
2018-11-25T11:02:28.272Z,91.92
2018-11-25T11:05:06.064Z,91.20
2018-11-25T11:07:39.654Z,92.00
2018-11-25T11:10:08.148Z,91.74
2018-11-25T11:12:35.133Z,92.13
2018-11-25T11:15:03.215Z,91.91
2018-11-25T11:17:30.611Z,90.86
2018-11-25T11:19:57.541Z,91.31
2018-11-25T11:22:24.451Z,90.89
2018-11-25T11:24:51.366Z,90.69
2018-11-25T11:27:18.316Z,90.46
2018-11-25T11:29:45.208Z,90.17
2018-11-25T11:32:12.121Z,89.46
2018-11-25T11:34:39.088Z,89.87
2018-11-25T11:37:06.047Z,89.97
2018-11-25T11:39:32.946Z,89.41
2018-11-25T11:41:59.874Z,88.46
2018-11-25T11:44:27.229Z,88.84
2018-11-25T11:46:54.143Z,87.72
2018-11-25T11:49:21.050Z,88.04
2018-11-25T11:51:47.982Z,86.89
2018-11-25T11:54:14.881Z,87.45
2018-11-25T11:56:41.787Z,86.21
2018-11-25T11:59:08.693Z,86.91
2018-11-25T12:01:36.199Z,87.12
2018-11-25T12:04:03.157Z,85.78
2018-11-25T12:06:30.090Z,86.13
2018-11-25T12:08:56.978Z,86.03
2018-11-25T12:11:23.889Z,86.32
2018-11-25T12:13:50.791Z,86.19
2018-11-25T12:16:17.709Z,86.46
2018-11-25T12:18:44.617Z,85.72
2018-11-25T12:21:11.520Z,85.02
2018-11-25T12:23:38.423Z,85.71
2018-11-25T12:26:05.384Z,84.96
2018-11-25T12:28:32.307Z,85.33
2018-11-25T12:30:59.408Z,86.19
2018-11-25T12:33:26.330Z,85.82
2018-11-25T12:35:53.226Z,85.47
2018-11-25T12:38:20.180Z,85.69
2018-11-25T12:40:47.092Z,84.96
2018-11-25T12:43:15.743Z,85.83
2018-11-25T12:45:42.690Z,85.27
2018-11-25T12:48:09.605Z,86.13
2018-11-25T12:50:36.539Z,85.20
2018-11-25T12:53:03.492Z,85.78
2018-11-25T12:55:30.390Z,86.04
2018-11-25T12:57:57.313Z,86.23
2018-11-25T13:00:31.691Z,85.86
2018-11-25T13:02:58.613Z,86.43
2018-11-25T13:05:25.570Z,86.12
2018-11-25T13:07:52.484Z,86.69
2018-11-25T13:10:19.398Z,86.61
2018-11-25T13:12:46.645Z,86.82
2018-11-25T13:15:13.590Z,86.75
2018-11-25T13:17:40.526Z,86.49
2018-11-25T13:20:11.245Z,86.56
2018-11-25T13:22:38.462Z,86.25
2018-11-25T13:25:06.941Z,86.85
2018-11-25T13:27:33.873Z,86.83
2018-11-25T13:30:08.957Z,86.43
2018-11-25T13:32:35.881Z,86.58
2018-11-25T13:35:03.283Z,85.79
2018-11-25T13:37:30.259Z,85.89
2018-11-25T13:39:57.207Z,85.79
2018-11-25T13:42:24.185Z,85.88
2018-11-25T13:44:50.210Z,86.52
2018-11-25T13:47:17.163Z,86.38
2018-11-25T13:49:44.113Z,86.34
2018-11-25T13:52:11.022Z,85.67
2018-11-25T13:54:37.995Z,85.95
2018-11-25T13:57:06.165Z,85.81
2018-11-25T14:00:38.662Z,86.94
2018-11-25T14:03:08.085Z,87.14
2018-11-25T14:05:35.038Z,87.35
2018-11-25T14:08:01.966Z,87.21
2018-11-25T14:10:30.823Z,86.88
2018-11-25T14:12:57.749Z,87.95
2018-11-25T14:15:25.197Z,87.79
2018-11-25T14:17:52.564Z,87.68
2018-11-25T14:20:19.477Z,88.49
2018-11-25T14:22:46.683Z,87.50
2018-11-25T14:25:15.381Z,87.46
2018-11-25T14:27:42.729Z,88.14
2018-11-25T14:30:13.458Z,88.35
2018-11-25T14:32:38.657Z,87.84
2018-11-25T14:35:07.777Z,88.26
2018-11-25T14:37:34.701Z,87.45
2018-11-25T14:40:01.596Z,87.52
2018-11-25T14:42:28.533Z,88.25
2018-11-25T14:44:55.456Z,88.46
2018-11-25T14:47:22.363Z,87.93
2018-11-25T14:49:49.305Z,88.29
2018-11-25T14:52:16.194Z,87.73
2018-11-25T14:54:51.018Z,88.41
2018-11-25T14:57:10.057Z,88.33
2018-11-25T14:59:36.973Z,88.39
2018-11-25T15:02:03.922Z,88.40
2018-11-25T15:04:36.040Z,88.37
2018-11-25T15:06:57.762Z,87.98
2018-11-25T15:09:24.672Z,88.44
2018-11-25T15:11:51.594Z,87.99
2018-11-25T15:14:18.521Z,87.46
2018-11-25T15:16:45.455Z,87.86
2018-11-25T15:19:12.365Z,88.25
2018-11-25T15:21:39.273Z,87.34
2018-11-25T15:24:06.221Z,87.35
2018-11-25T15:26:33.134Z,87.90
2018-11-25T15:29:00.061Z,86.94
2018-11-25T15:31:26.976Z,87.53
2018-11-25T15:33:53.890Z,87.21
2018-11-25T15:36:20.791Z,88.11
2018-11-25T15:38:47.714Z,87.36
2018-11-25T15:41:21.513Z,87.38
2018-11-25T15:43:48.417Z,88.19
2018-11-25T15:46:15.334Z,88.39
2018-11-25T15:48:42.270Z,87.73
2018-11-25T15:51:09.223Z,88.46
2018-11-25T15:53:36.158Z,87.60
2018-11-25T15:56:06.243Z,87.77
2018-11-25T15:58:33.190Z,88.66
2018-11-25T16:01:00.129Z,88.80
2018-11-25T16:03:28.009Z,87.85
2018-11-25T16:05:59.399Z,88.95
2018-11-25T16:08:26.350Z,88.96
2018-11-25T16:10:53.269Z,89.16
2018-11-25T16:13:20.214Z,89.08
2018-11-25T16:15:47.149Z,89.20
2018-11-25T16:18:14.053Z,88.56
2018-11-25T16:20:40.990Z,89.09
2018-11-25T16:23:09.112Z,88.60
2018-11-25T16:25:40.458Z,88.66
2018-11-25T16:28:13.449Z,88.57
2018-11-25T16:30:41.279Z,88.60
2018-11-25T16:33:08.189Z,88.88
2018-11-25T16:35:35.113Z,88.90
2018-11-25T16:38:02.020Z,88.93
2018-11-25T16:40:28.954Z,88.14
2018-11-25T16:42:55.865Z,88.74
2018-11-25T16:45:22.788Z,88.76
2018-11-25T16:47:49.697Z,88.50
2018-11-25T16:50:24.951Z,88.20
2018-11-25T16:52:44.261Z,88.27
2018-11-25T16:55:12.395Z,88.57
2018-11-25T16:57:39.419Z,88.38
2018-11-25T17:00:11.571Z,88.12
2018-11-25T17:02:38.498Z,88.30
2018-11-25T17:05:07.696Z,89.11
2018-11-25T17:07:34.604Z,89.11
2018-11-25T17:10:01.534Z,88.99
2018-11-25T17:12:28.435Z,88.40
2018-11-25T17:14:55.338Z,88.88
2018-11-25T17:17:22.258Z,88.05
2018-11-25T17:19:49.166Z,88.89
2018-11-25T17:22:16.690Z,88.83
2018-11-25T17:24:43.002Z,88.05
2018-11-25T17:27:09.930Z,88.81
2018-11-25T17:29:36.846Z,88.91
2018-11-25T17:32:04.018Z,88.96
2018-11-25T17:34:30.930Z,89.05
2018-11-25T17:36:57.897Z,88.98
2018-11-25T17:39:24.806Z,87.95
2018-11-25T17:41:51.728Z,89.15
2018-11-25T17:44:18.645Z,89.15
2018-11-25T17:46:45.569Z,89.20
2018-11-25T17:49:12.479Z,89.41
2018-11-25T17:51:39.402Z,88.79
2018-11-25T17:54:06.318Z,88.79
2018-11-25T17:56:33.233Z,89.56
2018-11-25T17:59:00.198Z,89.45
2018-11-25T18:01:27.126Z,89.75
2018-11-25T18:03:54.025Z,89.60
2018-11-25T18:06:21.067Z,89.51
2018-11-25T18:08:47.982Z,89.63
2018-11-25T18:11:14.918Z,88.90
2018-11-25T18:13:43.497Z,89.60
2018-11-25T18:16:12.731Z,90.03
2018-11-25T18:18:41.639Z,89.11
2018-11-25T18:21:10.542Z,89.30
2018-11-25T18:23:37.987Z,89.89
2018-11-25T18:26:05.174Z,89.78
2018-11-25T18:28:32.098Z,90.47
2018-11-25T18:30:59.046Z,90.52
2018-11-25T18:33:25.961Z,90.49
2018-11-25T18:35:52.904Z,89.79
2018-11-25T18:38:19.817Z,91.00
2018-11-25T18:40:46.721Z,91.06
2018-11-25T18:43:13.689Z,90.56
2018-11-25T18:45:40.613Z,91.17
2018-11-25T18:48:08.990Z,91.89
2018-11-25T18:50:35.902Z,91.96
2018-11-25T18:53:02.833Z,91.71
2018-11-25T18:55:28.865Z,92.23
2018-11-25T18:57:55.765Z,91.85
2018-11-25T19:00:26.107Z,92.59
2018-11-25T19:02:53.031Z,92.11
2018-11-25T19:05:19.953Z,91.92
2018-11-25T19:07:46.866Z,92.99
2018-11-25T19:10:16.018Z,92.00
2018-11-25T19:12:44.354Z,93.32
2018-11-25T19:15:11.141Z,92.56
2018-11-25T19:17:38.081Z,92.52
2018-11-25T19:20:17.773Z,93.04
2018-11-25T19:22:44.762Z,93.10
2018-11-25T19:25:15.735Z,93.95
2018-11-25T19:27:43.407Z,93.21
2018-11-25T19:30:14.071Z,92.54
2018-11-25T19:32:41.584Z,92.39
2018-11-25T19:35:10.479Z,93.37
2018-11-25T19:37:37.397Z,92.91
2018-11-25T19:40:07.766Z,93.57
2018-11-25T19:42:34.677Z,93.75
2018-11-25T19:45:01.606Z,93.04
2018-11-25T19:47:28.508Z,93.44
2018-11-25T19:49:55.423Z,92.83
2018-11-25T19:52:22.338Z,92.83
2018-11-25T19:54:49.271Z,92.98
2018-11-25T19:57:16.179Z,93.79
2018-11-25T19:59:43.099Z,94.00
2018-11-25T20:02:10.006Z,93.92
2018-11-25T20:04:36.926Z,94.09
2018-11-25T20:07:03.892Z,94.06
2018-11-25T20:09:30.805Z,93.13
2018-11-25T20:11:57.965Z,93.62
2018-11-25T20:14:25.188Z,94.15
2018-11-25T20:16:57.827Z,93.19
2018-11-25T20:19:24.737Z,94.23
2018-11-25T20:21:57.329Z,93.41
2018-11-25T20:24:24.273Z,93.85
2018-11-25T20:26:56.839Z,92.93
2018-11-25T20:29:24.469Z,92.85
2018-11-25T20:31:57.956Z,93.91
2018-11-25T20:34:25.085Z,92.88
2018-11-25T20:36:52.540Z,93.50
2018-11-25T20:39:26.412Z,93.00
2018-11-25T20:41:53.377Z,93.75
2018-11-25T20:44:20.405Z,93.51
2018-11-25T20:46:53.053Z,93.56
2018-11-25T20:49:19.978Z,93.48
2018-11-25T20:51:52.577Z,92.72
2018-11-25T20:54:19.494Z,92.55
2018-11-25T20:56:46.399Z,92.54
2018-11-25T20:59:13.310Z,92.58
2018-11-25T21:01:40.245Z,92.34
2018-11-25T21:04:07.166Z,92.64
2018-11-25T21:06:34.120Z,92.36
2018-11-25T21:09:01.053Z,92.48
2018-11-25T21:11:27.998Z,92.70
2018-11-25T21:13:54.901Z,92.96
2018-11-25T21:16:21.956Z,92.99
2018-11-25T21:18:48.869Z,92.89
2018-11-25T21:21:15.809Z,92.89
2018-11-25T21:23:42.715Z,92.81
2018-11-25T21:26:09.638Z,92.84
2018-11-25T21:28:36.545Z,92.89
2018-11-25T21:31:03.724Z,92.38
2018-11-25T21:33:30.625Z,92.25
2018-11-25T21:35:57.543Z,92.56
2018-11-25T21:38:24.445Z,92.93
2018-11-25T21:40:51.390Z,92.42
2018-11-25T21:43:18.306Z,93.33
2018-11-25T21:45:45.224Z,93.10
2018-11-25T21:48:12.133Z,93.33
2018-11-25T21:50:39.064Z,93.18
2018-11-25T21:53:05.989Z,93.83
2018-11-25T21:55:32.905Z,93.46
2018-11-25T21:57:59.817Z,93.75
2018-11-25T22:00:26.734Z,94.47
2018-11-25T22:02:53.636Z,94.78
2018-11-25T22:05:24.693Z,94.19
2018-11-25T22:07:47.536Z,94.95
2018-11-25T22:10:16.017Z,94.19
2018-11-25T22:12:43.374Z,94.57
2018-11-25T22:15:12.116Z,94.51
2018-11-25T22:17:39.174Z,95.17
2018-11-25T22:20:08.356Z,94.66
2018-11-25T22:22:35.266Z,94.65
2018-11-25T22:25:05.429Z,95.43
2018-11-25T22:27:33.404Z,95.63
2018-11-25T22:30:01.277Z,95.54
2018-11-25T22:32:29.029Z,94.80
2018-11-25T22:34:55.981Z,94.60
2018-11-25T22:37:24.036Z,94.96
2018-11-25T22:39:51.883Z,95.57
2018-11-25T22:42:18.857Z,94.47
2018-11-25T22:44:46.518Z,94.73
2018-11-25T22:47:13.740Z,94.42
2018-11-25T22:49:42.588Z,95.18
2018-11-25T22:52:09.586Z,94.18
2018-11-25T22:54:36.591Z,93.92
2018-11-25T22:57:05.751Z,94.42
2018-11-25T22:59:32.312Z,94.23
2018-11-25T23:01:59.234Z,95.06
2018-11-25T23:04:37.786Z,95.05
2018-11-25T23:07:04.797Z,95.12
2018-11-25T23:09:31.770Z,95.25
2018-11-25T23:11:59.973Z,95.38
2018-11-25T23:14:29.035Z,95.44
2018-11-25T23:16:56.093Z,94.85
2018-11-25T23:19:23.546Z,94.84
2018-11-25T23:21:54.017Z,95.25
2018-11-25T23:24:22.208Z,94.65
2018-11-25T23:26:50.684Z,94.58
2018-11-25T23:29:19.005Z,95.27
2018-11-25T23:31:47.630Z,95.54
2018-11-25T23:34:14.564Z,94.74
2018-11-25T23:36:41.570Z,95.25
2018-11-25T23:39:09.876Z,94.60
2018-11-25T23:41:37.160Z,94.46
2018-11-25T23:44:05.111Z,94.67
2018-11-25T23:46:32.325Z,95.26
2018-11-25T23:48:59.251Z,94.34
2018-11-25T23:51:28.117Z,95.50
2018-11-25T23:53:55.620Z,94.34
2018-11-25T23:56:23.677Z,94.36
2018-11-25T23:58:50.683Z,94.49
